Airfield :
LOGIN :

Register | Disclaimer

   EN    FR    IT 

 










Legend :    VFR   Marginal VFR   IFR   Intensive IFR   Very Intensive IFR
Visi :
Ceiling :
>= 8 km
>= 3000ft
5 to 8 km
1000 to 3000 ft
1500m to 5 km
500 to 1000 ft
800 to 1500m
200 to 500 ft
< 800m
< 200 ft
Symbols :   Thunderstorms  Fog  Heavy snow  Heavy precipitations  Wind > 20 kt
SIGMETs :     Misc.  Thunderstorms  Icing  Turbulence  Mountain Waves  Volcanic Ashes






- Airport Elevation : 194 ft
- IATA code : IEG


EPZG - Zielona Gora Babimost

CURRENT METAR :
  • 250430Z 00000KT 0200 R24/0300N FG VV000 14/14 Q1018

EXPIRED METARs :
  • 250400Z 13003KT 0200 R24/0325D FG VV000 14/14 Q1018
  • 250330Z 12004KT 0300 R24/0800N FG VV000 14/14 Q1018
  • 250300Z 13003KT 070V180 0300 R24/0600N FG VV000 14/14 Q1018

TAF AMD TAF EPZG
Valid from the 25 at 03:00 until the 25 at 12:00 UTC


250357Z 2503/2512 10003KT 0100 FG OVC000
BECMG 2504/2507 9999 BKN030
TEMPO 2510/2512 -SHRA BKN035CB



MET'MAP, your aeronautical weather chart ! - Copyright ORBIFLY December 2007 - Disclaimer

ORBIFLY MET'MAP TEAM :

Programming & Development : Alexandra Zaïnal
Original concept : Baudouin d'Aumeries
Technical & hardware support : Manuel Goepfert
Assistance : Marc-Olivier Méhu




SOURCES & CREDITS :

   NOAA